KOGA/OGA METAR and TAF weather

Enter ICAO airport designator
Station Type Date Time Source
KOGA METAR 2018/12/11 20:15 UTC NOAA

KOGA 112015Z AUTO 31013KT 10SM CLR 06/M02 A2996 RMK AO2 T00621018


Station Type Date Time Source
KOGA Decoded METAR 2018/12/11 20:15 UTC NOAA

Ogallala, Searle Field Airport, NE, United States (KOGA) 41-07-11N 101-46-08W
Dec 11, 2018 - 03:15 PM EST / 2018.12.11 2015 UTC
Wind: from the NW (310 degrees) at 15 MPH (13 KT):0
Visibility: 10 mile(s):0
Sky conditions: clear
Temperature: 43.2 F (6.2 C)
Dew Point: 28.8 F (-1.8 C)
Relative Humidity: 56%
Pressure (altimeter): 29.96 in. Hg (1014 hPa)
ob: KOGA 112015Z AUTO 31013KT 10SM CLR 06/M02 A2996 RMK AO2 T00621018
cycle: 20

Station Type Date Time Source
KOGA TAF UTC NOAA

Error!


Example: see airport list